Time;durP1;ratioP1;P1;durP2;ratioP2;P2;SDS_P1;SDS_P2;PMS_P1;PMS_P2;Temp;Humidity;BMP_temperature;BMP_pressure;BME280_temperature;BME280_humidity;BME280_pressure;Samples;Min_cycle;Max_cycle;Signal;HPM_P1;HPM_P2
2023/05/16 00:00:53;;;;;;;15.07;10.07;;;;;;;;;;5030103;28;20040;-77
2023/05/16 00:03:22;;;;;;;13.07;8.00;;;;;;;;;;5017339;28;20033;-77
2023/05/16 00:05:47;;;;;;;10.13;8.45;;;;;;;;;;5037831;28;20044;-77
2023/05/16 00:08:13;;;;;;;6.07;4.90;;;;;;;;;;5023264;28;20067;-77
2023/05/16 00:10:38;;;;;;;11.30;8.35;;;;;;;;;;5032846;28;20119;-77
2023/05/16 00:13:05;;;;;;;11.05;9.52;;;;;;;;;;5027496;28;20045;-77
2023/05/16 00:15:32;;;;;;;13.85;9.32;;;;;;;;;;5033436;28;20040;-77
2023/05/16 00:17:58;;;;;;;8.30;6.50;;;;;;;;;;5014009;28;20540;-76
2023/05/16 00:20:27;;;;;;;10.45;9.00;;;;;;;;;;5028047;28;20052;-76
2023/05/16 00:22:53;;;;;;;9.25;7.60;;;;;;;;;;5029833;28;20516;-75
2023/05/16 00:25:18;;;;;;;13.43;9.98;;;;;;;;;;5032013;28;20041;-76
2023/05/16 00:27:44;;;;;;;7.80;6.57;;;;;;;;;;5032318;28;20066;-76
2023/05/16 00:30:10;;;;;;;7.63;6.28;;;;;;;;;;5029574;28;20033;-76
2023/05/16 00:32:35;;;;;;;8.65;7.50;;;;;;;;;;4996876;28;20505;-76
2023/05/16 00:35:01;;;;;;;7.22;5.97;;;;;;;;;;5019501;28;20041;-76
2023/05/16 00:37:27;;;;;;;12.82;9.52;;;;;;;;;;5031547;28;20713;-76
2023/05/16 00:39:52;;;;;;;11.13;9.25;;;;;;;;;;5028652;28;20127;-76
2023/05/16 00:42:19;;;;;;;5.75;5.15;;;;;;;;;;5031987;28;20037;-76
2023/05/16 00:44:45;;;;;;;13.63;10.32;;;;;;;;;;5028081;28;20074;-76
2023/05/16 00:47:10;;;;;;;14.00;10.75;;;;;;;;;;5017932;28;20143;-75
2023/05/16 00:49:36;;;;;;;11.77;8.40;;;;;;;;;;4998974;28;20040;-76
2023/05/16 00:52:02;;;;;;;9.05;7.15;;;;;;;;;;5025739;28;20052;-75
2023/05/16 00:54:29;;;;;;;11.50;9.80;;;;;;;;;;5025547;28;20565;-75
2023/05/16 00:56:55;;;;;;;11.20;8.90;;;;;;;;;;5025680;28;20045;-76
2023/05/16 00:59:21;;;;;;;9.57;7.20;;;;;;;;;;5024902;28;20532;-77
2023/05/16 01:01:47;;;;;;;11.38;9.13;;;;;;;;;;5025467;28;20053;-76
2023/05/16 01:04:13;;;;;;;7.30;6.30;;;;;;;;;;5021097;28;20404;-76
2023/05/16 01:06:39;;;;;;;8.32;7.35;;;;;;;;;;5033463;28;20090;-76
2023/05/16 01:09:06;;;;;;;5.78;5.20;;;;;;;;;;5026881;28;20033;-76
2023/05/16 01:11:55;;;;;;;9.50;7.55;;;;;;;;;;5027659;28;20038;-76
2023/05/16 01:14:53;;;;;;;8.95;7.20;;;;;;;;;;5005640;28;20080;-75
2023/05/16 01:17:40;;;;;;;12.07;8.90;;;;;;;;;;5007845;28;20033;-76
2023/05/16 01:20:17;;;;;;;9.73;6.93;;;;;;;;;;5019413;28;20063;-77
2023/05/16 01:22:46;;;;;;;6.28;4.88;;;;;;;;;;5000970;28;20469;-77
2023/05/16 01:25:31;;;;;;;6.95;6.15;;;;;;;;;;4994336;28;20043;-76
2023/05/16 01:27:58;;;;;;;5.40;4.90;;;;;;;;;;5002442;28;20052;-77
2023/05/16 01:30:24;;;;;;;7.15;5.90;;;;;;;;;;5017529;28;20116;-77
2023/05/16 01:32:50;;;;;;;8.30;6.57;;;;;;;;;;5032746;28;20140;-75
2023/05/16 01:35:16;;;;;;;12.43;8.38;;;;;;;;;;5006508;28;20519;-76
2023/05/16 01:37:50;;;;;;;7.68;6.60;;;;;;;;;;5007858;28;20789;-75
2023/05/16 01:40:25;;;;;;;7.82;6.43;;;;;;;;;;5011591;28;20064;-76
2023/05/16 01:42:54;;;;;;;9.18;7.00;;;;;;;;;;5034918;28;20032;-75
2023/05/16 01:45:25;;;;;;;11.35;7.93;;;;;;;;;;5020698;28;20049;-75
2023/05/16 01:48:00;;;;;;;;;;;;;;;;;;5026976;28;20695;-76
2023/05/16 01:50:30;;;;;;;8.95;6.70;;;;;;;;;;4985668;28;19921;-75
2023/05/16 01:52:59;;;;;;;4.82;3.75;;;;;;;;;;5015632;28;20066;-76
2023/05/16 01:55:31;;;;;;;5.93;4.93;;;;;;;;;;5028559;28;20754;-75
2023/05/16 01:57:58;;;;;;;9.25;6.65;;;;;;;;;;5015211;28;20036;-76
2023/05/16 02:00:23;;;;;;;7.68;5.80;;;;;;;;;;5032280;28;20040;-76
2023/05/16 02:02:48;;;;;;;3.97;3.53;;;;;;;;;;4998377;28;20040;-76
2023/05/16 02:05:14;;;;;;;7.63;5.03;;;;;;;;;;5025669;28;20519;-76
2023/05/16 02:07:40;;;;;;;6.63;5.30;;;;;;;;;;5025204;28;20074;-76
2023/05/16 02:10:06;;;;;;;6.50;5.35;;;;;;;;;;5033807;28;20028;-76
2023/05/16 02:12:31;;;;;;;7.03;5.20;;;;;;;;;;5014474;28;20052;-76
2023/05/16 02:14:56;;;;;;;6.85;4.80;;;;;;;;;;5030522;28;20037;-76
2023/05/16 02:17:22;;;;;;;7.57;4.70;;;;;;;;;;5017514;28;20442;-76
2023/05/16 02:19:47;;;;;;;8.77;6.32;;;;;;;;;;5024278;28;20037;-76
2023/05/16 02:22:13;;;;;;;8.93;6.32;;;;;;;;;;5009209;28;20103;-76
2023/05/16 02:24:38;;;;;;;9.00;5.72;;;;;;;;;;5031691;28;20049;-76
2023/05/16 02:27:04;;;;;;;8.23;6.13;;;;;;;;;;5018428;28;20070;-76
2023/05/16 02:29:29;;;;;;;7.13;5.03;;;;;;;;;;5024980;28;20440;-75
2023/05/16 02:31:55;;;;;;;5.10;3.72;;;;;;;;;;5015564;28;20088;-76
2023/05/16 02:34:20;;;;;;;5.57;3.75;;;;;;;;;;5028901;28;20041;-76
2023/05/16 02:36:45;;;;;;;4.47;3.60;;;;;;;;;;5016367;28;20040;-76
2023/05/16 02:39:11;;;;;;;7.15;5.43;;;;;;;;;;5035831;28;20044;-76
2023/05/16 02:41:37;;;;;;;7.97;5.95;;;;;;;;;;5022279;28;20285;-76
2023/05/16 02:44:02;;;;;;;4.32;3.53;;;;;;;;;;5033086;28;20044;-76
2023/05/16 02:46:33;;;;;;;5.90;3.65;;;;;;;;;;5031874;28;20040;-76
2023/05/16 02:48:59;;;;;;;6.75;4.43;;;;;;;;;;5021838;28;20773;-76
2023/05/16 02:51:26;;;;;;;5.55;4.20;;;;;;;;;;5020445;28;20033;-76
2023/05/16 02:53:52;;;;;;;7.95;4.85;;;;;;;;;;5013638;28;20535;-76
2023/05/16 02:56:18;;;;;;;4.88;3.78;;;;;;;;;;5027672;28;20051;-76
2023/05/16 02:58:46;;;;;;;8.55;6.07;;;;;;;;;;5014287;28;20488;-76
2023/05/16 03:01:12;;;;;;;3.95;3.22;;;;;;;;;;5024109;28;20549;-76
2023/05/16 03:03:38;;;;;;;6.05;4.30;;;;;;;;;;5029579;28;20110;-76
2023/05/16 03:06:03;;;;;;;6.28;4.47;;;;;;;;;;5028358;28;20811;-76
2023/05/16 03:08:29;;;;;;;10.05;5.75;;;;;;;;;;5017837;28;20037;-76
2023/05/16 03:10:54;;;;;;;7.68;5.05;;;;;;;;;;5030817;28;20044;-76
2023/05/16 03:13:19;;;;;;;8.85;5.05;;;;;;;;;;5018087;28;20047;-76
2023/05/16 03:15:45;;;;;;;6.05;4.80;;;;;;;;;;5027127;28;20037;-76
2023/05/16 03:18:10;;;;;;;7.65;4.78;;;;;;;;;;5018858;28;20032;-76
2023/05/16 03:20:37;;;;;;;3.97;3.17;;;;;;;;;;5006976;28;20418;-76
2023/05/16 03:23:06;;;;;;;4.28;3.42;;;;;;;;;;5025003;28;20540;-76
2023/05/16 03:25:32;;;;;;;7.95;5.25;;;;;;;;;;5001467;28;20537;-76
2023/05/16 03:27:57;;;;;;;7.20;5.15;;;;;;;;;;5027809;28;20128;-76
2023/05/16 03:30:23;;;;;;;5.10;3.88;;;;;;;;;;5032218;28;20044;-77
2023/05/16 03:32:48;;;;;;;4.18;2.65;;;;;;;;;;5033384;28;20044;-77
2023/05/16 03:35:14;;;;;;;7.97;4.72;;;;;;;;;;5017473;28;20719;-77
2023/05/16 03:37:39;;;;;;;6.20;4.35;;;;;;;;;;5032575;28;20040;-76
2023/05/16 03:40:08;;;;;;;7.13;5.15;;;;;;;;;;5022853;28;20072;-77
2023/05/16 03:42:34;;;;;;;3.13;2.72;;;;;;;;;;5030399;28;20132;-76
2023/05/16 03:44:59;;;;;;;5.65;3.80;;;;;;;;;;5028696;28;20115;-76
2023/05/16 03:47:25;;;;;;;5.95;4.05;;;;;;;;;;5024565;28;20045;-76
2023/05/16 03:49:51;;;;;;;5.43;3.65;;;;;;;;;;5017349;28;20052;-76
2023/05/16 03:52:17;;;;;;;7.70;5.07;;;;;;;;;;5028305;28;20037;-76
2023/05/16 03:54:42;;;;;;;6.38;3.95;;;;;;;;;;5020995;28;20465;-76
2023/05/16 03:57:08;;;;;;;6.10;4.13;;;;;;;;;;5011873;28;20036;-77
2023/05/16 03:59:33;;;;;;;10.63;5.82;;;;;;;;;;5016119;28;20060;-77
2023/05/16 04:01:59;;;;;;;4.65;3.33;;;;;;;;;;5014735;28;20037;-77
2023/05/16 04:04:25;;;;;;;7.30;3.92;;;;;;;;;;5017991;28;20060;-77
2023/05/16 04:06:50;;;;;;;3.58;2.50;;;;;;;;;;5029750;28;20596;-76
2023/05/16 04:09:15;;;;;;;5.05;3.58;;;;;;;;;;5003464;28;20046;-77
2023/05/16 04:11:41;;;;;;;4.90;3.38;;;;;;;;;;4990204;28;20045;-77
2023/05/16 04:14:07;;;;;;;2.53;2.10;;;;;;;;;;5026734;28;20045;-77
2023/05/16 04:16:32;;;;;;;8.10;5.25;;;;;;;;;;5026101;28;20765;-76
2023/05/16 04:18:58;;;;;;;9.35;4.32;;;;;;;;;;5021933;28;20051;-77
2023/05/16 04:21:25;;;;;;;6.88;4.57;;;;;;;;;;5001121;28;20033;-77
2023/05/16 04:23:51;;;;;;;5.57;3.92;;;;;;;;;;5033040;28;20044;-77
2023/05/16 04:26:16;;;;;;;5.72;3.60;;;;;;;;;;5025617;28;20531;-77
2023/05/16 04:28:42;;;;;;;6.07;4.20;;;;;;;;;;5027696;28;20041;-76
2023/05/16 04:31:07;;;;;;;6.35;4.70;;;;;;;;;;5031948;28;20086;-77
2023/05/16 04:33:33;;;;;;;2.60;2.28;;;;;;;;;;5011598;28;21702;-77
2023/05/16 04:35:59;;;;;;;2.28;1.80;;;;;;;;;;5014467;28;20037;-77
2023/05/16 04:38:24;;;;;;;3.20;2.42;;;;;;;;;;5023805;28;20583;-76
2023/05/16 04:40:50;;;;;;;1.58;1.48;;;;;;;;;;5034830;28;20368;-77
2023/05/16 04:43:16;;;;;;;3.97;2.90;;;;;;;;;;5026748;28;20048;-76
2023/05/16 04:45:42;;;;;;;2.92;2.45;;;;;;;;;;4980523;28;20045;-76
2023/05/16 04:48:07;;;;;;;2.17;1.70;;;;;;;;;;5023722;28;20067;-77
2023/05/16 04:50:33;;;;;;;5.80;4.15;;;;;;;;;;5026474;28;20079;-77
2023/05/16 04:52:59;;;;;;;3.13;2.58;;;;;;;;;;5029642;28;20121;-77
2023/05/16 04:55:24;;;;;;;6.97;3.47;;;;;;;;;;5024511;28;20045;-77
2023/05/16 04:57:50;;;;;;;3.22;1.95;;;;;;;;;;5024349;28;20037;-77
2023/05/16 05:00:16;;;;;;;6.78;3.95;;;;;;;;;;5001203;28;20040;-77
2023/05/16 05:02:42;;;;;;;1.85;1.65;;;;;;;;;;5025261;28;20128;-77
2023/05/16 05:05:08;;;;;;;4.38;2.85;;;;;;;;;;4997417;28;20576;-77
2023/05/16 05:07:33;;;;;;;4.82;3.45;;;;;;;;;;5028103;28;20041;-77
2023/05/16 05:09:59;;;;;;;3.85;2.70;;;;;;;;;;5010912;28;20062;-77
2023/05/16 05:12:26;;;;;;;4.18;2.55;;;;;;;;;;5029753;28;20055;-77
2023/05/16 05:14:51;;;;;;;5.65;3.85;;;;;;;;;;5014960;28;20055;-78
2023/05/16 05:17:17;;;;;;;2.08;1.70;;;;;;;;;;5024558;28;20040;-78
2023/05/16 05:19:42;;;;;;;4.07;3.22;;;;;;;;;;4996666;28;20679;-78
2023/05/16 05:22:08;;;;;;;3.05;1.60;;;;;;;;;;5019327;28;20530;-78
2023/05/16 05:24:33;;;;;;;4.40;2.30;;;;;;;;;;5016748;28;20694;-77
2023/05/16 05:26:58;;;;;;;5.88;3.17;;;;;;;;;;5022851;28;20068;-77
2023/05/16 05:29:24;;;;;;;5.68;3.70;;;;;;;;;;5017261;28;20525;-77
2023/05/16 05:31:49;;;;;;;4.25;3.10;;;;;;;;;;5012891;28;20068;-77
2023/05/16 05:34:15;;;;;;;3.38;2.22;;;;;;;;;;5022307;28;20583;-78
2023/05/16 05:36:40;;;;;;;3.10;2.05;;;;;;;;;;5028106;28;20519;-78
2023/05/16 05:39:05;;;;;;;3.65;2.45;;;;;;;;;;5030883;28;20048;-79
2023/05/16 05:41:31;;;;;;;3.58;3.05;;;;;;;;;;5029136;28;20033;-79
2023/05/16 05:43:56;;;;;;;3.00;2.65;;;;;;;;;;5016799;28;20048;-78
2023/05/16 05:46:23;;;;;;;3.10;2.60;;;;;;;;;;5005988;28;20052;-78
2023/05/16 05:48:49;;;;;;;3.03;1.92;;;;;;;;;;5023127;28;20929;-78
2023/05/16 05:51:14;;;;;;;4.78;2.40;;;;;;;;;;5016406;28;20033;-79
2023/05/16 05:53:40;;;;;;;2.25;2.05;;;;;;;;;;5023729;28;20071;-78
2023/05/16 05:56:06;;;;;;;2.83;2.08;;;;;;;;;;5031235;28;20036;-78
2023/05/16 05:58:31;;;;;;;2.17;1.70;;;;;;;;;;4998446;28;20042;-78
2023/05/16 06:00:56;;;;;;;4.22;2.20;;;;;;;;;;5022944;28;20040;-79
2023/05/16 06:03:22;;;;;;;2.60;1.52;;;;;;;;;;5028376;28;20037;-78
2023/05/16 06:05:47;;;;;;;13.75;4.63;;;;;;;;;;5013261;28;20111;-81
2023/05/16 06:08:13;;;;;;;2.90;1.80;;;;;;;;;;5015867;28;20032;-79
2023/05/16 06:10:38;;;;;;;2.20;1.48;;;;;;;;;;5025273;28;20045;-77
2023/05/16 06:13:03;;;;;;;2.95;1.90;;;;;;;;;;5004243;28;20053;-78
2023/05/16 06:15:29;;;;;;;1.67;1.42;;;;;;;;;;5018879;28;20048;-79
2023/05/16 06:17:55;;;;;;;1.35;1.25;;;;;;;;;;5023716;28;20044;-78
2023/05/16 06:20:20;;;;;;;2.35;1.33;;;;;;;;;;5020209;28;20745;-78
2023/05/16 06:22:45;;;;;;;2.40;1.63;;;;;;;;;;5031521;28;20103;-78
2023/05/16 06:25:11;;;;;;;3.35;1.50;;;;;;;;;;5018966;28;20039;-78
2023/05/16 06:27:36;;;;;;;2.28;1.67;;;;;;;;;;5039171;28;20041;-78
2023/05/16 06:30:02;;;;;;;1.98;1.10;;;;;;;;;;5033758;28;20039;-78
2023/05/16 06:32:28;;;;;;;2.47;1.63;;;;;;;;;;5036090;28;20045;-78
2023/05/16 06:34:53;;;;;;;1.92;1.05;;;;;;;;;;5043387;28;20041;-78
2023/05/16 06:37:19;;;;;;;2.30;1.25;;;;;;;;;;5046283;28;20040;-78
2023/05/16 06:39:44;;;;;;;1.65;1.20;;;;;;;;;;5046493;28;20067;-78
2023/05/16 06:42:09;;;;;;;3.15;1.98;;;;;;;;;;5027470;28;20087;-78
2023/05/16 06:44:35;;;;;;;2.55;1.00;;;;;;;;;;5028514;28;20041;-77
2023/05/16 06:47:00;;;;;;;1.77;1.10;;;;;;;;;;5039470;28;20413;-78
2023/05/16 06:49:26;;;;;;;1.25;0.90;;;;;;;;;;5038992;28;20048;-78
2023/05/16 06:51:51;;;;;;;3.03;1.25;;;;;;;;;;5042109;28;20386;-77
2023/05/16 06:54:16;;;;;;;1.17;1.08;;;;;;;;;;5028621;28;20120;-78
2023/05/16 06:56:42;;;;;;;1.90;0.82;;;;;;;;;;5040161;28;20112;-77
2023/05/16 06:59:07;;;;;;;0.80;0.80;;;;;;;;;;5033434;28;20725;-78
2023/05/16 07:01:33;;;;;;;1.92;1.00;;;;;;;;;;5043021;28;20041;-78
2023/05/16 07:03:58;;;;;;;1.80;1.10;;;;;;;;;;5043875;28;20071;-78
2023/05/16 07:06:23;;;;;;;2.00;0.80;;;;;;;;;;5032401;28;20036;-77
2023/05/16 07:08:50;;;;;;;1.30;1.00;;;;;;;;;;5031956;28;20440;-78
2023/05/16 07:11:15;;;;;;;1.27;1.00;;;;;;;;;;5025633;28;20634;-77
2023/05/16 07:13:40;;;;;;;2.15;1.40;;;;;;;;;;5034866;28;20041;-78
2023/05/16 07:16:07;;;;;;;1.90;1.05;;;;;;;;;;5023938;28;20037;-78
2023/05/16 07:18:32;;;;;;;3.00;1.10;;;;;;;;;;5033731;28;20044;-78
2023/05/16 07:20:58;;;;;;;1.35;1.20;;;;;;;;;;5033285;28;20053;-78
2023/05/16 07:23:23;;;;;;;1.98;0.95;;;;;;;;;;5040524;28;20052;-78
2023/05/16 07:25:48;;;;;;;3.40;1.27;;;;;;;;;;5019153;28;20076;-78
2023/05/16 07:28:14;;;;;;;2.88;1.00;;;;;;;;;;5027348;28;20513;-78
2023/05/16 07:30:39;;;;;;;1.65;1.52;;;;;;;;;;5028173;28;20029;-78
2023/05/16 07:33:05;;;;;;;2.47;1.25;;;;;;;;;;5029158;28;20045;-79
2023/05/16 07:35:30;;;;;;;3.92;1.60;;;;;;;;;;5033473;28;20040;-78
2023/05/16 07:37:55;;;;;;;2.42;1.60;;;;;;;;;;5043014;28;20057;-78
2023/05/16 07:40:24;;;;;;;1.10;0.85;;;;;;;;;;5033057;28;20040;-78
2023/05/16 07:42:50;;;;;;;1.90;1.10;;;;;;;;;;5044250;28;20113;-78
2023/05/16 07:45:16;;;;;;;4.63;1.80;;;;;;;;;;5022873;28;20206;-78
2023/05/16 07:47:41;;;;;;;2.00;0.88;;;;;;;;;;5012802;28;20049;-78
2023/05/16 07:50:07;;;;;;;2.50;1.40;;;;;;;;;;5038766;28;20039;-78
2023/05/16 07:52:32;;;;;;;1.80;1.15;;;;;;;;;;5040286;28;20568;-78
2023/05/16 07:54:57;;;;;;;2.70;1.30;;;;;;;;;;5032998;28;20040;-77
2023/05/16 07:57:23;;;;;;;2.65;1.50;;;;;;;;;;5030579;28;20068;-78
2023/05/16 07:59:49;;;;;;;3.42;1.67;;;;;;;;;;5028021;28;20398;-78
2023/05/16 08:02:15;;;;;;;3.80;1.40;;;;;;;;;;5025825;28;20033;-77
2023/05/16 08:04:40;;;;;;;2.80;1.35;;;;;;;;;;5042290;28;20035;-79
2023/05/16 08:07:06;;;;;;;3.35;1.77;;;;;;;;;;5015401;28;20550;-78
2023/05/16 08:09:31;;;;;;;2.95;1.30;;;;;;;;;;5027764;28;20034;-78
2023/05/16 08:11:56;;;;;;;2.88;1.48;;;;;;;;;;5039082;28;20651;-78
2023/05/16 08:14:22;;;;;;;5.20;1.75;;;;;;;;;;5034486;28;20041;-78
2023/05/16 08:16:48;;;;;;;4.70;1.80;;;;;;;;;;5032442;28;20052;-79
2023/05/16 08:19:13;;;;;;;4.45;1.73;;;;;;;;;;5040974;28;20126;-78
2023/05/16 08:21:39;;;;;;;4.80;1.88;;;;;;;;;;5036347;28;20090;-78
2023/05/16 08:24:05;;;;;;;2.50;1.73;;;;;;;;;;5036902;28;20050;-78
2023/05/16 08:26:31;;;;;;;4.03;1.77;;;;;;;;;;5049570;28;20094;-78
2023/05/16 08:28:56;;;;;;;6.72;2.38;;;;;;;;;;5054446;28;20032;-78
2023/05/16 08:31:22;;;;;;;6.00;2.03;;;;;;;;;;5032908;28;20072;-77
2023/05/16 08:33:47;;;;;;;7.63;2.40;;;;;;;;;;5054359;28;20045;-76
2023/05/16 08:36:14;;;;;;;4.45;1.40;;;;;;;;;;5035220;28;20659;-78
2023/05/16 08:38:40;;;;;;;7.97;2.55;;;;;;;;;;5036100;28;20033;-77
2023/05/16 08:41:05;;;;;;;4.45;1.70;;;;;;;;;;5036295;28;20044;-75
2023/05/16 08:43:32;;;;;;;2.13;1.92;;;;;;;;;;5043526;28;20043;-78
2023/05/16 08:45:58;;;;;;;3.03;1.50;;;;;;;;;;5045735;28;20032;-78
2023/05/16 08:48:25;;;;;;;1.60;1.23;;;;;;;;;;5038140;28;20123;-78
2023/05/16 08:50:52;;;;;;;7.22;1.88;;;;;;;;;;5029044;28;20041;-78
2023/05/16 08:53:25;;;;;;;5.68;1.77;;;;;;;;;;5035039;28;20037;-79
2023/05/16 08:55:52;;;;;;;5.65;1.90;;;;;;;;;;5039951;28;20643;-78
2023/05/16 08:58:19;;;;;;;5.45;1.30;;;;;;;;;;5045953;28;20396;-78
2023/05/16 09:00:44;;;;;;;5.18;1.77;;;;;;;;;;5036140;28;20041;-78
2023/05/16 09:03:10;;;;;;;4.32;1.60;;;;;;;;;;5021967;28;20039;-78
2023/05/16 09:05:36;;;;;;;4.88;1.80;;;;;;;;;;5034676;28;20131;-79
2023/05/16 09:08:01;;;;;;;3.63;1.38;;;;;;;;;;5012228;28;20071;-78
2023/05/16 09:10:27;;;;;;;3.08;1.40;;;;;;;;;;5034918;28;20037;-79
2023/05/16 09:12:52;;;;;;;6.25;1.73;;;;;;;;;;5039136;28;20520;-79
2023/05/16 09:15:20;;;;;;;6.05;1.83;;;;;;;;;;5037301;28;20040;-78
2023/05/16 09:17:46;;;;;;;3.88;1.15;;;;;;;;;;5038446;28;20109;-77
2023/05/16 09:20:16;;;;;;;2.65;1.30;;;;;;;;;;5048409;28;20041;-78
2023/05/16 09:22:55;;;;;;;5.25;1.45;;;;;;;;;;5034864;28;20041;-77
2023/05/16 09:25:23;;;;;;;10.95;1.73;;;;;;;;;;5037640;28;20032;-78
2023/05/16 09:27:56;;;;;;;9.77;2.47;;;;;;;;;;5038094;28;20121;-78
2023/05/16 09:30:26;;;;;;;2.90;1.10;;;;;;;;;;5027970;28;20034;-78
2023/05/16 09:32:52;;;;;;;5.38;1.30;;;;;;;;;;5042018;28;20076;-78
2023/05/16 09:35:19;;;;;;;5.88;1.42;;;;;;;;;;5039983;28;20053;-78
2023/05/16 09:37:50;;;;;;;5.93;1.73;;;;;;;;;;5039920;28;20041;-78
2023/05/16 09:40:20;;;;;;;2.67;1.02;;;;;;;;;;5037814;28;20040;-78
2023/05/16 09:42:45;;;;;;;3.75;1.05;;;;;;;;;;5028231;28;20397;-78
2023/05/16 09:45:12;;;;;;;5.72;1.40;;;;;;;;;;5035110;28;20497;-78
2023/05/16 09:47:44;;;;;;;4.60;1.13;;;;;;;;;;5039086;28;20063;-78
2023/05/16 09:50:12;;;;;;;6.25;1.27;;;;;;;;;;5044591;28;20420;-78
2023/05/16 09:52:37;;;;;;;6.80;1.42;;;;;;;;;;5033684;28;20064;-78
2023/05/16 09:55:06;;;;;;;2.20;0.90;;;;;;;;;;5019307;28;20076;-78
2023/05/16 09:57:31;;;;;;;1.75;0.90;;;;;;;;;;5034774;28;20086;-78
2023/05/16 10:00:00;;;;;;;3.45;0.88;;;;;;;;;;5033177;28;20039;-78
2023/05/16 10:02:26;;;;;;;2.55;1.10;;;;;;;;;;5039219;28;20048;-78
2023/05/16 10:04:52;;;;;;;4.47;1.23;;;;;;;;;;5030603;28;20045;-78
2023/05/16 10:07:18;;;;;;;2.92;0.93;;;;;;;;;;5040776;28;20121;-79
2023/05/16 10:09:45;;;;;;;2.67;0.90;;;;;;;;;;5019620;28;20113;-78
2023/05/16 10:12:12;;;;;;;3.85;1.17;;;;;;;;;;5045895;28;20052;-77
2023/05/16 10:14:39;;;;;;;3.75;1.00;;;;;;;;;;5039674;28;20116;-77
2023/05/16 10:17:13;;;;;;;2.60;0.60;;;;;;;;;;5043841;28;20040;-76
2023/05/16 10:19:39;;;;;;;2.65;1.05;;;;;;;;;;5047815;28;20029;-77
2023/05/16 10:22:06;;;;;;;2.00;1.00;;;;;;;;;;5040236;28;20432;-77
2023/05/16 10:24:37;;;;;;;4.65;1.00;;;;;;;;;;5055845;28;20037;-76
2023/05/16 10:27:04;;;;;;;5.63;1.38;;;;;;;;;;5054535;28;20131;-78
2023/05/16 10:29:29;;;;;;;3.15;0.80;;;;;;;;;;5053547;28;20901;-76
2023/05/16 10:31:55;;;;;;;3.28;1.02;;;;;;;;;;5048042;28;20045;-79
2023/05/16 10:34:22;;;;;;;3.53;0.75;;;;;;;;;;5039604;28;20074;-78
2023/05/16 10:36:47;;;;;;;3.28;0.98;;;;;;;;;;5052155;28;20045;-79
2023/05/16 10:39:14;;;;;;;4.40;0.70;;;;;;;;;;5049561;28;20116;-79
2023/05/16 10:41:40;;;;;;;2.75;0.85;;;;;;;;;;5031174;28;20036;-78
2023/05/16 10:44:12;;;;;;;5.25;0.70;;;;;;;;;;5034907;28;20051;-78
2023/05/16 10:46:38;;;;;;;2.88;0.57;;;;;;;;;;5031770;28;20040;-76
2023/05/16 10:49:24;;;;;;;1.38;0.60;;;;;;;;;;5043774;28;20037;-79
2023/05/16 10:52:03;;;;;;;4.28;0.70;;;;;;;;;;5052386;28;20049;-76
2023/05/16 10:54:40;;;;;;;2.42;0.80;;;;;;;;;;5023065;28;20731;-77
2023/05/16 10:57:10;;;;;;;1.48;0.52;;;;;;;;;;5038227;28;20120;-77
2023/05/16 10:59:44;;;;;;;2.03;0.85;;;;;;;;;;5041525;28;20034;-78
2023/05/16 11:02:21;;;;;;;2.40;0.60;;;;;;;;;;5028489;28;20050;-78
2023/05/16 11:05:00;;;;;;;4.82;0.70;;;;;;;;;;5046657;28;20033;-77
2023/05/16 11:07:32;;;;;;;5.40;1.15;;;;;;;;;;5048850;28;20045;-78
2023/05/16 11:10:15;;;;;;;2.17;0.70;;;;;;;;;;5055436;28;20037;-79
2023/05/16 11:12:48;;;;;;;3.60;0.70;;;;;;;;;;5014324;28;20080;-78
2023/05/16 11:15:16;;;;;;;1.88;0.82;;;;;;;;;;5049894;28;20111;-77
2023/05/16 11:17:42;;;;;;;2.35;1.00;;;;;;;;;;5053563;28;20109;-76
2023/05/16 11:20:24;;;;;;;2.65;0.80;;;;;;;;;;5054683;28;20036;-77
2023/05/16 11:22:50;;;;;;;2.35;0.73;;;;;;;;;;5044265;28;20033;-77
2023/05/16 11:25:16;;;;;;;3.15;0.77;;;;;;;;;;5052249;28;20094;-76
2023/05/16 11:27:46;;;;;;;2.72;0.70;;;;;;;;;;5055363;28;20083;-78
2023/05/16 11:30:13;;;;;;;2.43;0.70;;;;;;;;;;5049884;28;20120;-78
2023/05/16 11:32:41;;;;;;;5.72;0.85;;;;;;;;;;5042312;28;20104;-79
2023/05/16 11:35:10;;;;;;;2.85;0.70;;;;;;;;;;5045997;28;20028;-78
2023/05/16 11:37:37;;;;;;;2.53;0.98;;;;;;;;;;5038336;28;20040;-77
2023/05/16 11:40:03;;;;;;;3.42;1.08;;;;;;;;;;5031464;28;20072;-79
2023/05/16 11:42:34;;;;;;;2.55;0.82;;;;;;;;;;5047085;28;20037;-77
2023/05/16 11:45:11;;;;;;;4.18;0.93;;;;;;;;;;5026514;28;20221;-79
2023/05/16 11:47:37;;;;;;;4.15;0.82;;;;;;;;;;5035843;28;20544;-77
2023/05/16 11:50:05;;;;;;;3.90;1.00;;;;;;;;;;5039824;28;20139;-77
2023/05/16 11:52:31;;;;;;;2.83;0.85;;;;;;;;;;5045487;28;20048;-76
2023/05/16 11:55:00;;;;;;;1.88;0.80;;;;;;;;;;5053598;28;20052;-77
2023/05/16 11:57:26;;;;;;;3.05;1.05;;;;;;;;;;5046944;28;20156;-76
2023/05/16 11:59:52;;;;;;;3.03;0.90;;;;;;;;;;5047543;28;20064;-77
2023/05/16 12:02:17;;;;;;;3.55;0.60;;;;;;;;;;5043348;28;20327;-77
2023/05/16 12:04:46;;;;;;;2.95;0.80;;;;;;;;;;5059162;28;20040;-78
2023/05/16 12:07:11;;;;;;;3.67;0.70;;;;;;;;;;5053767;28;20108;-77
2023/05/16 12:09:37;;;;;;;3.20;0.90;;;;;;;;;;5042870;28;20044;-79
2023/05/16 12:12:04;;;;;;;3.67;0.77;;;;;;;;;;5056161;28;20102;-78
2023/05/16 12:14:30;;;;;;;3.80;0.65;;;;;;;;;;5044163;28;20045;-78
2023/05/16 12:16:56;;;;;;;3.45;0.80;;;;;;;;;;5017549;28;20029;-79
2023/05/16 12:19:23;;;;;;;1.60;0.90;;;;;;;;;;5050371;28;20033;-76
2023/05/16 12:21:51;;;;;;;3.00;0.75;;;;;;;;;;5044381;28;20112;-79
2023/05/16 12:24:17;;;;;;;3.20;1.15;;;;;;;;;;5044825;28;20041;-77
2023/05/16 12:26:43;;;;;;;3.63;0.90;;;;;;;;;;5031009;28;20045;-79
2023/05/16 12:29:10;;;;;;;2.58;0.90;;;;;;;;;;5031305;28;20060;-78
2023/05/16 12:31:37;;;;;;;5.22;1.00;;;;;;;;;;5051579;28;20037;-78
2023/05/16 12:34:03;;;;;;;3.72;0.80;;;;;;;;;;5053753;28;20033;-77
2023/05/16 12:36:33;;;;;;;1.80;0.52;;;;;;;;;;5018500;28;20037;-76
2023/05/16 12:39:01;;;;;;;2.60;0.80;;;;;;;;;;5050662;28;20067;-77
2023/05/16 12:41:29;;;;;;;3.30;0.88;;;;;;;;;;5053026;28;20029;-77
2023/05/16 12:44:16;;;;;;;2.72;0.60;;;;;;;;;;5025734;28;20053;-78
2023/05/16 12:46:53;;;;;;;1.95;0.80;;;;;;;;;;5042218;28;20097;-76
2023/05/16 12:49:20;;;;;;;3.17;0.90;;;;;;;;;;5048408;28;20032;-76
2023/05/16 12:51:53;;;;;;;1.13;0.50;;;;;;;;;;5053973;28;20037;-77
2023/05/16 12:54:19;;;;;;;3.75;0.70;;;;;;;;;;5020811;28;20045;-78
2023/05/16 12:56:46;;;;;;;1.92;0.68;;;;;;;;;;5043126;28;20043;-76
2023/05/16 12:59:12;;;;;;;2.13;0.43;;;;;;;;;;5047459;28;20037;-78
2023/05/16 13:01:37;;;;;;;3.00;0.82;;;;;;;;;;5034176;28;20029;-79
2023/05/16 13:04:03;;;;;;;1.23;0.40;;;;;;;;;;5046999;28;20202;-77
2023/05/16 13:06:29;;;;;;;0.68;0.60;;;;;;;;;;5035846;28;20032;-76
2023/05/16 13:08:56;;;;;;;3.85;0.93;;;;;;;;;;5054398;28;20125;-78
2023/05/16 13:11:22;;;;;;;1.67;0.47;;;;;;;;;;5030195;28;20037;-77
2023/05/16 13:13:47;;;;;;;3.13;0.57;;;;;;;;;;5034634;28;20037;-77
2023/05/16 13:16:13;;;;;;;3.22;1.17;;;;;;;;;;5035086;28;20595;-78
2023/05/16 13:18:38;;;;;;;1.23;0.45;;;;;;;;;;5030411;28;20034;-77
2023/05/16 13:21:04;;;;;;;279.42;16.75;;;;;;;;;;5015597;28;20128;-77
2023/05/16 13:23:30;;;;;;;1.42;0.70;;;;;;;;;;5055823;28;20060;-77
2023/05/16 13:25:55;;;;;;;3.22;0.55;;;;;;;;;;5050442;28;20036;-79
2023/05/16 13:28:21;;;;;;;1.55;0.85;;;;;;;;;;5047940;28;20053;-77
2023/05/16 13:30:46;;;;;;;2.30;0.60;;;;;;;;;;5056497;28;20037;-79
2023/05/16 13:33:12;;;;;;;2.08;0.55;;;;;;;;;;5053062;28;20582;-76
2023/05/16 13:35:37;;;;;;;0.63;0.40;;;;;;;;;;5043410;28;20056;-78
2023/05/16 13:38:03;;;;;;;1.70;0.50;;;;;;;;;;5045449;28;20065;-76
2023/05/16 13:40:29;;;;;;;2.20;0.60;;;;;;;;;;5028081;28;20045;-79
2023/05/16 13:42:55;;;;;;;2.30;0.57;;;;;;;;;;5044573;28;20037;-78
2023/05/16 13:45:21;;;;;;;0.80;0.43;;;;;;;;;;5048681;28;20060;-76
2023/05/16 13:47:46;;;;;;;2.63;0.50;;;;;;;;;;5035396;28;20072;-77
2023/05/16 13:50:12;;;;;;;2.10;0.43;;;;;;;;;;5025170;28;20037;-79
2023/05/16 13:52:37;;;;;;;0.98;0.60;;;;;;;;;;5052718;28;20063;-76
2023/05/16 13:55:04;;;;;;;2.20;0.57;;;;;;;;;;5043543;28;20485;-78
2023/05/16 13:57:30;;;;;;;1.42;0.50;;;;;;;;;;5019638;28;20521;-77
2023/05/16 13:59:55;;;;;;;2.80;0.82;;;;;;;;;;5038551;28;20064;-77
2023/05/16 14:02:21;;;;;;;1.83;0.40;;;;;;;;;;5047355;28;20114;-78
2023/05/16 14:04:46;;;;;;;3.15;0.60;;;;;;;;;;5040610;28;20061;-78
2023/05/16 14:07:12;;;;;;;4.38;0.60;;;;;;;;;;5040655;28;20141;-76
2023/05/16 14:09:38;;;;;;;1.33;0.47;;;;;;;;;;5040702;28;20044;-77
2023/05/16 14:12:07;;;;;;;4.40;0.60;;;;;;;;;;5047779;28;20106;-79
2023/05/16 14:14:34;;;;;;;2.10;1.20;;;;;;;;;;5041348;28;20053;-77
2023/05/16 14:16:59;;;;;;;3.58;0.80;;;;;;;;;;5006953;28;20041;-76
2023/05/16 14:19:24;;;;;;;1.90;0.70;;;;;;;;;;5048128;28;20364;-77
2023/05/16 14:21:50;;;;;;;4.03;0.65;;;;;;;;;;5049216;28;20036;-79
2023/05/16 14:24:15;;;;;;;3.05;0.63;;;;;;;;;;5037321;28;20037;-77
2023/05/16 14:26:41;;;;;;;2.58;0.95;;;;;;;;;;5038580;28;20072;-77
2023/05/16 14:29:06;;;;;;;3.63;0.60;;;;;;;;;;5048140;28;20048;-77
2023/05/16 14:31:32;;;;;;;3.03;0.60;;;;;;;;;;5035352;28;20533;-78
2023/05/16 14:33:58;;;;;;;1.08;0.60;;;;;;;;;;5052282;28;20046;-77
2023/05/16 14:36:24;;;;;;;2.90;0.80;;;;;;;;;;5020247;28;20044;-78
2023/05/16 14:38:49;;;;;;;2.75;0.50;;;;;;;;;;5039484;28;20033;-79
2023/05/16 14:41:15;;;;;;;3.20;0.70;;;;;;;;;;5043885;28;20597;-77